^^
Saratoga-Weather Station Historical Data
Daily Summary for April 27, 2021 Units:  English    Metric   Both
Daily Weekly Monthly Yearly Custom
  High: Low: Average:
Temperature: 38.7 °F 32 °F 35.1 °F
Dew Point: 37.9 °F 29.7 °F 33.6 °F
Humidity: 97% 86% 94%
Wind Speed: 4mph 0mph 0.4mph
Wind Gust: 8mph - -
Wind- - SSE
Pressure: 30.1 in 29.9 in -
Precipitation: 0.13 in    
Historical Graphs
 
 
Tabular Data for April 27, 2021
Time Temperature Dew Point Pressure Wind Wind Speed Wind Gust Humidity Rainfall Rate (Hourly) solar
00:01 34.2 °F 30.4 °F 30.1 in ENE 0.9 mph 2 mph 86% 0 in 0 W/m2
00:06 34 °F 30.2 °F 30.1 in ENE 0.9 mph 2 mph 86% 0 in 0 W/m2
00:11 33.8 °F 30 °F 30.1 in Calm   1 mph 86% 0 in 0 W/m2
00:16 33.6 °F 30.2 °F 30.1 in ENE 2 mph 2 mph 87% 0 in 0 W/m2
00:21 33.4 °F 30 °F 30.1 in Calm   1 mph 87% 0 in 0 W/m2
00:26 33.3 °F 30 °F 30.1 in Calm     88% 0 in 0 W/m2
00:31 33.1 °F 29.8 °F 30.1 in Calm     88% 0 in 0 W/m2
00:36 32.7 °F 29.8 °F 30.1 in Calm     89% 0 in 0 W/m2
00:41 32.7 °F 29.8 °F 30.1 in Calm     89% 0 in 0 W/m2
00:46 32.5 °F 30 °F 30.1 in Calm     90% 0 in 0 W/m2
00:51 32.5 °F 30 °F 30.1 in Calm     90% 0 in 0 W/m2
00:56 32.5 °F 30 °F 30.1 in ENE 0.9 mph 1 mph 90% 0 in 0 W/m2
01:01 32.4 °F 29.8 °F 30.1 in Calm   1 mph 90% 0 in 0 W/m2
01:06 32.4 °F 29.8 °F 30.1 in ENE 0.9 mph 2 mph 90% 0 in 0 W/m2
01:11 32.2 °F 29.7 °F 30.1 in ENE 0.9 mph 1 mph 90% 0 in 0 W/m2
01:16 32.2 °F 29.8 °F 30.1 in ENE 0.9 mph 2 mph 91% 0 in 0 W/m2
01:21 32 °F 29.7 °F 30.1 in ENE 2 mph 2 mph 91% 0 in 0 W/m2
01:26 32.2 °F 29.8 °F 30.1 in ENE 0.9 mph 1 mph 91% 0 in 0 W/m2
01:31 32.4 °F 30 °F 30.1 in ENE 0.9 mph 3 mph 91% 0 in 0 W/m2
01:36 32.4 °F 30 °F 30.1 in ENE 0.9 mph 3 mph 91% 0 in 0 W/m2
01:41 32.4 °F 30 °F 30.1 in ENE 0.9 mph 1 mph 91% 0 in 0 W/m2
01:47 32.4 °F 30 °F 30.1 in Calm   1 mph 91% 0 in 0 W/m2
01:52 32.4 °F 30 °F 30.1 in ENE 0.9 mph 2 mph 91% 0 in 0 W/m2
01:57 32.5 °F 30.2 °F 30.1 in ENE 2 mph 2 mph 91% 0 in 0 W/m2
02:02 32.5 °F 30.2 °F 30.1 in ENE 0.9 mph 1 mph 91% 0 in 0 W/m2
02:07 32.5 °F 30.2 °F 30.1 in Calm   2 mph 91% 0 in 0 W/m2
02:12 32.5 °F 30.2 °F 30.1 in Calm     91% 0 in 0 W/m2
02:17 32.5 °F 30.2 °F 30.1 in ENE 0.9 mph 2 mph 91% 0 in 0 W/m2
02:22 32.5 °F 30.2 °F 30.1 in Calm     91% 0 in 0 W/m2
02:27 32.5 °F 30.6 °F 30.1 in ENE 0.9 mph 1 mph 92% 0 in 0 W/m2
02:32 32.5 °F 30.6 °F 30.1 in ENE 0.9 mph 1 mph 92% 0 in 0 W/m2
02:37 32.7 °F 30.7 °F 30.1 in Calm     92% 0 in 0 W/m2
02:42 32.9 °F 30.9 °F 30.1 in Calm   1 mph 92% 0 in 0 W/m2
02:47 33.1 °F 31.1 °F 30.1 in Calm   1 mph 92% 0 in 0 W/m2
02:52 33.3 °F 31.1 °F 30.1 in Calm     92% 0 in 0 W/m2
02:57 33.3 °F 30.9 °F 30.1 in Calm     91% 0 in 0 W/m2
03:02 33.3 °F 30.9 °F 30.1 in Calm     91% 0 in 0 W/m2
03:07 33.4 °F 31.1 °F 30.1 in Calm     91% 0 in 0 W/m2
03:12 33.4 °F 31.1 °F 30.1 in Calm     91% 0 in 0 W/m2
03:17 33.4 °F 31.3 °F 30.1 in Calm     92% 0 in 0 W/m2
03:22 33.3 °F 31.1 °F 30.1 in Calm   1 mph 92% 0 in 0 W/m2
03:27 33.3 °F 31.1 °F 30.1 in Calm     92% 0 in 0 W/m2
03:32 33.3 °F 31.1 °F 30.1 in Calm   1 mph 92% 0 in 0 W/m2
03:37 33.3 °F 31.5 °F 30.1 in ENE 2 mph 2 mph 93% 0 in 0 W/m2
03:42 33.3 °F 31.5 °F 30.1 in Calm   2 mph 93% 0 in 0 W/m2
03:47 33.1 °F 31.3 °F 30.1 in ENE 0.9 mph 2 mph 93% 0 in 0 W/m2
03:52 33.1 °F 31.3 °F 30.1 in ENE 0.9 mph 2 mph 93% 0 in 0 W/m2
03:57 33.1 °F 31.5 °F 30.1 in ENE 0.9 mph 2 mph 94% 0 in 0 W/m2
04:02 33.1 °F 31.5 °F 30.1 in ENE 0.9 mph 2 mph 94% 0 in 0 W/m2
04:07 32.7 °F 31.1 °F 30.1 in ENE 0.9 mph 2 mph 94% 0 in 0 W/m2
04:12 32.7 °F 31.1 °F 30.1 in NE 0.9 mph 2 mph 94% 0 in 0 W/m2
04:17 32.7 °F 31.1 °F 30.1 in NE 0.9 mph 2 mph 94% 0 in 0 W/m2
04:22 32.7 °F 31.1 °F 30.1 in NE 0.9 mph 1 mph 94% 0 in 0 W/m2
04:27 32.7 °F 31.1 °F 30.1 in Calm   1 mph 94% 0 in 0 W/m2
04:32 32.7 °F 31.5 °F 30 in NE 0.9 mph 2 mph 95% 0 in 0 W/m2
04:37 32.7 °F 31.5 °F 30 in Calm   1 mph 95% 0 in 0 W/m2
04:42 32.7 °F 31.5 °F 30 in ENE 0.9 mph 3 mph 95% 0 in 0 W/m2
04:47 32.7 °F 31.5 °F 30 in Calm   1 mph 95% 0 in 0 W/m2
04:52 32.7 °F 31.5 °F 30 in NE 0.9 mph 3 mph 95% 0 in 0 W/m2
04:57 32.7 °F 31.5 °F 30 in NE 0.9 mph 1 mph 95% 0 in 0 W/m2
05:02 32.7 °F 31.5 °F 30 in NE 0.9 mph 2 mph 95% 0 in 0 W/m2
05:07 32.7 °F 31.5 °F 30 in Calm   3 mph 95% 0 in 0 W/m2
05:12 32.7 °F 31.5 °F 30 in East 2 mph 2 mph 95% 0 in 0 W/m2
05:17 32.7 °F 31.5 °F 30 in ESE 0.9 mph 3 mph 95% 0 in 0 W/m2
05:22 32.7 °F 31.5 °F 30 in ESE 2 mph 2 mph 95% 0 in 0 W/m2
05:27 32.7 °F 31.5 °F 30 in NE 0.9 mph 1 mph 95% 0 in 0 W/m2
05:32 32.7 °F 31.5 °F 30 in East 0.9 mph 2 mph 95% 0 in 0 W/m2
05:37 32.7 °F 31.5 °F 30 in SE 2 mph 2 mph 95% 0 in 0 W/m2
05:42 32.7 °F 31.5 °F 30 in ESE 0.9 mph 4 mph 95% 0 in 0 W/m2
05:47 32.7 °F 31.5 °F 30 in Calm   2 mph 95% 0 in 0 W/m2
05:52 32.7 °F 31.5 °F 30 in Calm   2 mph 95% 0 in 0 W/m2
05:57 32.7 °F 31.5 °F 30 in Calm   1 mph 95% 0 in 0 W/m2
06:02 32.7 °F 31.5 °F 30 in ENE 2 mph 2 mph 95% 0 in 0 W/m2
06:07 32.7 °F 31.5 °F 30 in Calm   1 mph 95% 0 in 0 W/m2
06:12 32.7 °F 31.5 °F 30 in Calm   1 mph 95% 0 in 0 W/m2
06:17 32.7 °F 31.5 °F 30 in ESE 2 mph 2 mph 95% 0 in 0 W/m2
06:22 32.9 °F 31.6 °F 30 in Calm   3 mph 95% 0 in 0 W/m2
06:27 32.9 °F 31.6 °F 30 in Calm   1 mph 95% 0 in 0 W/m2
06:32 32.9 °F 31.6 °F 30 in Calm     95% 0 in 0 W/m2
06:37 32.9 °F 31.6 °F 30 in Calm   2 mph 95% 0 in 0 W/m2
06:42 32.9 °F 31.6 °F 30 in ENE 0.9 mph 1 mph 95% 0 in 0 W/m2
06:47 32.9 °F 31.6 °F 30 in North 2 mph 2 mph 95% 0 in 0 W/m2
06:52 33.1 °F 31.8 °F 30 in Calm   2 mph 95% 0 in 0 W/m2
06:57 33.1 °F 32 °F 30 in Calm   2 mph 96% 0 in 0 W/m2
07:02 33.1 °F 32 °F 30 in Calm   2 mph 96% 0 in 0 W/m2
07:07 33.1 °F 32 °F 30 in Calm   2 mph 96% 0 in 0 W/m2
07:12 33.3 °F 32 °F 30 in Calm     95% 0 in 0 W/m2
07:17 33.3 °F 32 °F 30 in East 2 mph 2 mph 95% 0 in 0 W/m2
07:22 33.3 °F 32 °F 30 in ENE 0.9 mph 1 mph 95% 0 in 0 W/m2
07:27 33.3 °F 32 °F 30 in NE 0.9 mph 2 mph 95% 0 in 0 W/m2
07:32 33.3 °F 32 °F 30 in Calm     95% 0 in 0 W/m2
07:37 33.3 °F 32 °F 30 in ENE 2 mph 2 mph 95% 0 in 0 W/m2
07:42 33.3 °F 32 °F 30 in Calm   1 mph 95% 0 in 0 W/m2
07:47 33.3 °F 32 °F 30 in Calm   1 mph 95% 0 in 0 W/m2
07:52 33.3 °F 32 °F 30 in NE 0.9 mph 2 mph 95% 0 in 0 W/m2
07:57 33.3 °F 32 °F 30 in Calm     95% 0 in 0 W/m2
08:02 33.3 °F 32 °F 30 in Calm   2 mph 95% 0 in 0 W/m2
08:07 33.3 °F 32 °F 30 in NE 0.9 mph 2 mph 95% 0 in 0 W/m2
08:12 33.3 °F 32 °F 30 in Calm   1 mph 95% 0 in 0 W/m2
08:17 33.3 °F 32 °F 30 in Calm   1 mph 95% 0 in 0 W/m2
08:22 33.3 °F 32 °F 30 in Calm     95% 0 in 0 W/m2
08:27 33.1 °F 31.8 °F 30 in Calm   1 mph 95% 0 in 0 W/m2
08:32 33.1 °F 31.8 °F 29.9 in Calm   1 mph 95% 0 in 0 W/m2
08:37 33.1 °F 31.8 °F 29.9 in East 0.9 mph 2 mph 95% 0 in 0 W/m2
08:42 33.3 °F 32 °F 30 in Calm   1 mph 95% 0 in 0 W/m2
08:47 33.3 °F 32 °F 30 in Calm   1 mph 95% 0 in 0 W/m2
08:52 33.3 °F 32 °F 30 in Calm   1 mph 95% 0 in 0 W/m2
08:57 33.3 °F 32 °F 30 in Calm     95% 0 in 0 W/m2
09:03 33.3 °F 32 °F 30 in Calm     95% 0 in 0 W/m2
09:08 33.3 °F 32 °F 30 in Calm   1 mph 95% 0 in 0 W/m2
09:13 33.3 °F 32 °F 30 in Calm   1 mph 95% 0 in 5 W/m2
09:18 33.3 °F 32 °F 30 in Calm     95% 0 in 7 W/m2
09:23 33.3 °F 32 °F 30 in Calm   2 mph 95% 0 in 9 W/m2
09:28 33.4 °F 32.2 °F 30 in Calm     95% 0 in 9 W/m2
09:33 33.4 °F 32.2 °F 30 in Calm     95% 0 in 9 W/m2
09:38 33.4 °F 32.2 °F 29.9 in Calm     95% 0 in 11 W/m2
09:43 33.4 °F 32.2 °F 30 in Calm     95% 0 in 11 W/m2
09:48 33.4 °F 32.2 °F 29.9 in Calm     95% 0 in 18 W/m2
09:53 33.6 °F 32.4 °F 29.9 in Calm     95% 0 in 25 W/m2
09:58 33.8 °F 32.5 °F 29.9 in Calm     95% 0 in 23 W/m2
10:03 34 °F 32.7 °F 29.9 in Calm   1 mph 95% 0 in 21 W/m2
10:08 34 °F 32.7 °F 29.9 in ENE 0.9 mph 2 mph 95% 0 in 21 W/m2
10:13 34.2 °F 32.5 °F 29.9 in Calm   2 mph 94% 0 in 16 W/m2
10:18 34.2 °F 32.5 °F 29.9 in Calm     94% 0 in 19 W/m2
10:23 34.2 °F 32.5 °F 29.9 in WNW 2 mph 3 mph 94% 0 in 16 W/m2
10:28 34.2 °F 32.5 °F 29.9 in Calm   1 mph 94% 0 in 19 W/m2
10:33 34.3 °F 32.7 °F 30 in North 2 mph 2 mph 94% 0 in 18 W/m2
10:38 34.3 °F 32.7 °F 30 in South 0.9 mph 1 mph 94% 0 in 21 W/m2
10:43 34.3 °F 32.5 °F 30 in Calm   2 mph 93% 0 in 19 W/m2
10:48 34.3 °F 32.5 °F 30 in Calm   1 mph 93% 0 in 19 W/m2
10:53 34.3 °F 32.5 °F 30 in Calm   1 mph 93% 0 in 23 W/m2
10:58 34.5 °F 32.7 °F 30 in Calm   1 mph 93% 0 in 25 W/m2
11:03 34.5 °F 32.7 °F 30 in Calm     93% 0 in 23 W/m2
11:08 34.5 °F 32.9 °F 30 in Calm     94% 0 in 23 W/m2
11:13 34.7 °F 33.1 °F 30 in Calm     94% 0 in 23 W/m2
11:18 34.7 °F 32.9 °F 30 in Calm     93% 0 in 21 W/m2
11:23 34.7 °F 32.9 °F 30 in Calm     93% 0 in 19 W/m2
11:28 34.5 °F 32.7 °F 30 in Calm   1 mph 93% 0 in 19 W/m2
11:33 34.5 °F 32.9 °F 30 in Calm     94% 0 in 16 W/m2
11:38 34.5 °F 32.9 °F 30 in Calm   1 mph 94% 0 in 19 W/m2
11:43 34.5 °F 32.9 °F 30 in Calm   1 mph 94% 0 in 25 W/m2
11:48 34.5 °F 32.9 °F 30 in ESE 0.9 mph 1 mph 94% 0 in 30 W/m2
11:53 34.3 °F 32.7 °F 30 in Calm   2 mph 94% 0 in 33 W/m2
11:58 34.3 °F 32.7 °F 30 in ENE 2.9 mph 4 mph 94% 0 in 35 W/m2
12:03 34.3 °F 32.7 °F 30 in East 0.9 mph 3 mph 94% 0.01 in 33 W/m2
12:08 34.5 °F 32.9 °F 30 in SE 0.9 mph 2 mph 94% 0.01 in 40 W/m2
12:13 34.5 °F 32.9 °F 30 in ENE 2 mph 2 mph 94% 0.02 in 49 W/m2
12:18 34.7 °F 33.1 °F 30 in Calm   1 mph 94% 0.02 in 58 W/m2
12:23 34.9 °F 33.3 °F 30 in Calm   1 mph 94% 0.02 in 62 W/m2
12:28 34.9 °F 33.3 °F 30 in SE 2 mph 2 mph 94% 0.02 in 69 W/m2
12:33 35.1 °F 33.4 °F 30 in ESE 0.9 mph 2 mph 94% 0.02 in 70 W/m2
12:38 35.2 °F 33.6 °F 30 in Calm     94% 0.03 in 69 W/m2
12:43 35.1 °F 33.3 °F 30 in Calm   3 mph 93% 0.03 in 81 W/m2
12:48 35.2 °F 33.6 °F 30 in NE 0.9 mph 1 mph 94% 0.03 in 76 W/m2
12:53 35.2 °F 33.6 °F 30 in Calm   2 mph 94% 0.04 in 74 W/m2
12:58 35.2 °F 33.6 °F 30 in Calm   1 mph 94% 0.04 in 69 W/m2
13:03 35.2 °F 33.6 °F 30 in Calm   3 mph 94% 0.04 in 72 W/m2
13:08 35.2 °F 33.6 °F 30 in Calm   1 mph 94% 0.04 in 60 W/m2
13:13 35.4 °F 33.8 °F 30 in Calm   2 mph 94% 0.03 in 86 W/m2
13:18 35.4 °F 33.8 °F 30 in Calm   1 mph 94% 0.04 in 120 W/m2
13:23 35.6 °F 34 °F 29.9 in NNE 2 mph 2 mph 94% 0.03 in 144 W/m2
13:28 35.6 °F 34 °F 30 in Calm   2 mph 94% 0.04 in 141 W/m2
13:33 35.8 °F 34.2 °F 29.9 in Calm   1 mph 94% 0.04 in 84 W/m2
13:38 36 °F 34.3 °F 29.9 in West 0.9 mph 1 mph 94% 0.04 in 77 W/m2
13:43 36 °F 34.3 °F 29.9 in Calm   2 mph 94% 0.04 in 77 W/m2
13:48 36 °F 34.3 °F 29.9 in NNW 0.9 mph 1 mph 94% 0.04 in 95 W/m2
13:53 36 °F 34.3 °F 29.9 in NNW 2 mph 2 mph 94% 0.04 in 102 W/m2
13:58 36 °F 34.3 °F 29.9 in Calm   2 mph 94% 0.04 in 86 W/m2
14:03 36.1 °F 34.5 °F 29.9 in Calm   2 mph 94% 0.04 in 114 W/m2
14:08 36.1 °F 34.5 °F 29.9 in NW 0.9 mph 4 mph 94% 0.04 in 114 W/m2
14:13 36.3 °F 34.7 °F 29.9 in Calm   8 mph 94% 0.05 in 118 W/m2
14:18 36.3 °F 34.7 °F 29.9 in Calm   2 mph 94% 0.04 in 127 W/m2
14:23 36.5 °F 34.9 °F 29.9 in WNW 2 mph 4 mph 94% 0.05 in 102 W/m2
14:28 36.5 °F 34.9 °F 29.9 in West 2.9 mph 7 mph 94% 0.04 in 102 W/m2
14:33 36.5 °F 34.9 °F 29.9 in Calm   4 mph 94% 0.04 in 77 W/m2
14:38 36.7 °F 35.4 °F 29.9 in West 2.9 mph 7 mph 95% 0.04 in 65 W/m2
14:43 36.7 °F 35.1 °F 29.9 in WNW 4 mph 5 mph 94% 0.04 in 60 W/m2
14:48 36.7 °F 35.1 °F 29.9 in NW 0.9 mph 2 mph 94% 0.04 in 62 W/m2
14:53 36.7 °F 35.1 °F 29.9 in Calm   3 mph 94% 0.03 in 58 W/m2
14:58 36.9 °F 35.2 °F 29.9 in Calm   2 mph 94% 0.04 in 69 W/m2
15:03 36.9 °F 35.2 °F 29.9 in Calm   3 mph 94% 0.03 in 70 W/m2
15:08 36.9 °F 35.2 °F 29.9 in North 0.9 mph 2 mph 94% 0.03 in 72 W/m2
15:13 36.9 °F 35.2 °F 29.9 in NNW 0.9 mph 2 mph 94% 0.02 in 47 W/m2
15:18 36.9 °F 35.2 °F 29.9 in Calm   1 mph 94% 0.03 in 42 W/m2
15:23 36.9 °F 35.2 °F 29.9 in NW 2.9 mph 4 mph 94% 0.02 in 39 W/m2
15:28 37 °F 35.4 °F 29.9 in ENE 0.9 mph 2 mph 94% 0.02 in 39 W/m2
15:33 37 °F 35.4 °F 29.9 in NW 0.9 mph 5 mph 94% 0.02 in 37 W/m2
15:38 37 °F 35.4 °F 29.9 in East 0.9 mph 3 mph 94% 0.02 in 44 W/m2
15:43 37 °F 35.4 °F 29.9 in North 0.9 mph 5 mph 94% 0.02 in 35 W/m2
15:48 37 °F 35.4 °F 29.9 in Calm   2 mph 94% 0.02 in 33 W/m2
15:53 37 °F 35.4 °F 29.9 in NW 0.9 mph 3 mph 94% 0.01 in 25 W/m2
15:58 37 °F 35.4 °F 29.9 in NNW 2 mph 2 mph 94% 0.01 in 23 W/m2
16:03 37 °F 35.4 °F 29.9 in NNW 0.9 mph 3 mph 94% 0.01 in 19 W/m2
16:08 37 °F 35.4 °F 29.9 in West 0.9 mph 2 mph 94% 0.01 in 19 W/m2
16:13 37 °F 35.8 °F 29.9 in Calm   3 mph 95% 0.02 in 19 W/m2
16:18 37 °F 35.4 °F 29.9 in Calm   3 mph 94% 0.01 in 14 W/m2
16:23 37 °F 35.4 °F 29.9 in Calm   1 mph 94% 0.01 in 12 W/m2
16:28 37 °F 35.8 °F 29.9 in NW 0.9 mph 4 mph 95% 0.01 in 9 W/m2
16:33 37 °F 35.8 °F 30 in NW 0.9 mph 3 mph 95% 0.01 in 7 W/m2
16:39 37 °F 35.8 °F 30 in Calm   4 mph 95% 0.01 in 5 W/m2
16:44 37 °F 35.8 °F 30 in Calm   1 mph 95% 0.01 in 0 W/m2
16:49 37 °F 35.8 °F 30 in Calm     95% 0.01 in 0 W/m2
16:54 37 °F 35.8 °F 30 in NW 0.9 mph 2 mph 95% 0.01 in 0 W/m2
16:59 37 °F 35.8 °F 30 in Calm     95% 0.01 in 5 W/m2
17:04 37 °F 35.8 °F 29.9 in Calm     95% 0.01 in 5 W/m2
17:09 37 °F 35.8 °F 29.9 in Calm   2 mph 95% 0.01 in 0 W/m2
17:14 37 °F 35.8 °F 30 in NW 0.9 mph 1 mph 95% 0 in 0 W/m2
17:19 37 °F 35.8 °F 30 in NW 0.9 mph 1 mph 95% 0 in 0 W/m2
17:24 37 °F 35.8 °F 30 in Calm     95% 0 in 0 W/m2
17:29 36.9 °F 35.6 °F 30 in Calm     95% 0 in 0 W/m2
17:34 36.9 °F 35.6 °F 30 in Calm     95% 0 in 0 W/m2
17:39 36.9 °F 35.6 °F 30 in NW 0.9 mph 2 mph 95% 0 in 0 W/m2
17:44 37 °F 35.8 °F 30 in Calm     95% 0 in 0 W/m2
17:49 37 °F 35.8 °F 30 in NE 0.9 mph 2 mph 95% 0 in 0 W/m2
17:54 37 °F 36 °F 30 in NE 0.9 mph 2 mph 96% 0 in 0 W/m2
17:59 37 °F 36 °F 30 in Calm   3 mph 96% 0 in 0 W/m2
18:04 37 °F 36 °F 30 in Calm     96% 0 in 0 W/m2
18:09 37 °F 36 °F 30 in Calm   3 mph 96% 0 in 0 W/m2
18:14 37 °F 36 °F 30 in Calm     96% 0 in 0 W/m2
18:19 37 °F 36 °F 30 in Calm     96% 0 in 0 W/m2
18:24 37 °F 36 °F 30 in Calm     96% 0 in 0 W/m2
18:29 37 °F 36 °F 30 in North 0.9 mph 2 mph 96% 0 in 0 W/m2
18:34 37 °F 36 °F 30 in Calm   1 mph 96% 0 in 0 W/m2
18:39 37 °F 36 °F 30 in Calm   2 mph 96% 0 in 0 W/m2
18:44 37 °F 36 °F 30 in West 0.9 mph 1 mph 96% 0 in 0 W/m2
18:49 37 °F 36 °F 30 in West 0.9 mph 2 mph 96% 0 in 0 W/m2
18:54 37.2 °F 36.1 °F 30 in Calm     96% 0 in 0 W/m2
18:59 37.2 °F 36.1 °F 30 in WNW 0.9 mph 3 mph 96% 0 in 0 W/m2
19:04 37.2 °F 36.1 °F 30 in Calm   1 mph 96% 0 in 0 W/m2
19:09 37.4 °F 36.3 °F 30 in Calm   1 mph 96% 0 in 0 W/m2
19:14 37.4 °F 36.3 °F 30 in Calm   2 mph 96% 0 in 0 W/m2
19:19 37.4 °F 36.3 °F 30 in Calm   2 mph 96% 0 in 0 W/m2
19:24 37.4 °F 36.3 °F 30 in Calm     96% 0 in 0 W/m2
19:29 37.4 °F 36.3 °F 30 in Calm     96% 0 in 0 W/m2
19:34 37.4 °F 36.3 °F 30 in Calm     96% 0 in 0 W/m2
19:39 37.2 °F 36.1 °F 30 in Calm     96% 0 in 0 W/m2
19:44 37.2 °F 36.1 °F 30 in Calm     96% 0 in 0 W/m2
19:49 37.2 °F 36.1 °F 30 in Calm     96% 0 in 0 W/m2
19:54 37.2 °F 36.1 °F 30 in Calm     96% 0 in 0 W/m2
19:59 37.2 °F 36.1 °F 30 in Calm     96% 0 in 0 W/m2
20:04 37.2 °F 36.1 °F 30 in Calm     96% 0 in 0 W/m2
20:09 37.2 °F 36.1 °F 30 in Calm     96% 0 in 0 W/m2
20:14 37.2 °F 36.1 °F 30 in Calm     96% 0 in 0 W/m2
20:19 37.2 °F 36.1 °F 30 in Calm     96% 0 in 0 W/m2
20:24 37.2 °F 36.1 °F 30 in Calm     96% 0 in 0 W/m2
20:29 37.2 °F 36.1 °F 30 in Calm     96% 0 in 0 W/m2
20:34 37.2 °F 36.1 °F 30 in Calm     96% 0 in 0 W/m2
20:39 37.2 °F 36.1 °F 30 in Calm     96% 0 in 0 W/m2
20:44 37.2 °F 36.1 °F 30 in SSW 0.9 mph 1 mph 96% 0 in 0 W/m2
20:49 37.4 °F 36.3 °F 30 in Calm   1 mph 96% 0 in 0 W/m2
20:54 37.6 °F 36.5 °F 30 in Calm     96% 0 in 0 W/m2
20:59 37.6 °F 36.9 °F 30 in Calm     97% 0 in 0 W/m2
21:04 37.8 °F 37 °F 30 in NNW 0.9 mph 2 mph 97% 0 in 0 W/m2
21:09 37.8 °F 37 °F 30 in Calm     97% 0 in 0 W/m2
21:14 37.8 °F 36.7 °F 30 in Calm     96% 0 in 0 W/m2
21:19 37.8 °F 36.7 °F 30 in Calm     96% 0 in 0 W/m2
21:24 37.8 °F 36.7 °F 30 in Calm     96% 0 in 0 W/m2
21:29 37.8 °F 36.7 °F 30 in NNW 0.9 mph 2 mph 96% 0 in 0 W/m2
21:34 37.8 °F 37 °F 30 in NW 0.9 mph 2 mph 97% 0 in 0 W/m2
21:39 37.9 °F 37.2 °F 30 in Calm     97% 0 in 0 W/m2
21:44 37.9 °F 36.9 °F 30 in South 0.9 mph 2 mph 96% 0 in 0 W/m2
21:49 37.9 °F 36.9 °F 30 in Calm     96% 0 in 0 W/m2
21:54 37.9 °F 36.9 °F 30 in Calm     96% 0 in 0 W/m2
21:59 37.9 °F 36.9 °F 30 in South 0.9 mph 1 mph 96% 0 in 0 W/m2
22:04 38.1 °F 37 °F 29.9 in Calm   2 mph 96% 0 in 0 W/m2
22:09 38.1 °F 37 °F 29.9 in Calm     96% 0 in 0 W/m2
22:14 37.9 °F 36.9 °F 30 in Calm   2 mph 96% 0 in 0 W/m2
22:19 38.1 °F 37.4 °F 30 in Calm   2 mph 97% 0 in 0 W/m2
22:24 38.3 °F 37.6 °F 30 in Calm   1 mph 97% 0 in 0 W/m2
22:29 38.3 °F 37.6 °F 30 in Calm     97% 0 in 0 W/m2
22:34 38.3 °F 37.6 °F 30 in Calm   1 mph 97% 0 in 0 W/m2
22:39 38.5 °F 37.8 °F 30 in Calm     97% 0 in 0 W/m2
22:44 38.5 °F 37.8 °F 29.9 in SE 0.9 mph 1 mph 97% 0 in 0 W/m2
22:49 38.5 °F 37.8 °F 29.9 in NE 0.9 mph 2 mph 97% 0 in 0 W/m2
22:54 38.7 °F 37.9 °F 29.9 in Calm     97% 0 in 0 W/m2
23:00 38.7 °F 37.9 °F 29.9 in ENE 0.9 mph 1 mph 97% 0 in 0 W/m2
23:05 38.7 °F 37.9 °F 29.9 in Calm     97% 0 in 0 W/m2
23:10 38.7 °F 37.9 °F 29.9 in Calm     97% 0 in 0 W/m2
23:15 38.7 °F 37.9 °F 29.9 in Calm   2 mph 97% 0 in 0 W/m2
23:20 38.7 °F 37.9 °F 29.9 in ENE 0.9 mph 2 mph 97% 0 in 0 W/m2
23:25 38.7 °F 37.9 °F 29.9 in ENE 0.9 mph 1 mph 97% 0 in 0 W/m2
23:30 38.7 °F 37.9 °F 29.9 in Calm     97% 0 in 0 W/m2
23:35 38.5 °F 37.8 °F 29.9 in Calm     97% 0 in 0 W/m2
23:40 38.5 °F 37.8 °F 29.9 in East 0.9 mph 2 mph 97% 0 in 0 W/m2
23:45 38.5 °F 37.8 °F 29.9 in Calm   1 mph 97% 0 in 0 W/m2
23:50 38.7 °F 37.9 °F 29.9 in East 0.9 mph 2 mph 97% 0 in 0 W/m2
23:55 38.7 °F 37.9 °F 29.9 in Calm   1 mph 97% 0 in 0 W/m2
Juneau County Weather
Compliments of Weather Underground - 4 mb